sensor_id;sensor_type;location;lat;lon;timestamp;pressure;altitude;pressure_sealevel;temperature;humidity
19236;BME280;9752;54.270;12.470;2023-06-19T00:02:35;103117.19;;;12.28;100.00
19236;BME280;9752;54.270;12.470;2023-06-19T00:07:37;103119.59;;;12.16;100.00
19236;BME280;9752;54.270;12.470;2023-06-19T00:12:40;103138.16;;;12.10;100.00
19236;BME280;9752;54.270;12.470;2023-06-19T00:17:41;103148.06;;;12.15;100.00
19236;BME280;9752;54.270;12.470;2023-06-19T00:22:43;103158.31;;;12.13;100.00
19236;BME280;9752;54.270;12.470;2023-06-19T00:27:46;103177.94;;;12.09;100.00
19236;BME280;9752;54.270;12.470;2023-06-19T00:32:48;103206.53;;;12.09;100.00
19236;BME280;9752;54.270;12.470;2023-06-19T00:37:53;103220.88;;;11.87;100.00
19236;BME280;9752;54.270;12.470;2023-06-19T00:42:56;103221.88;;;11.79;100.00
19236;BME280;9752;54.270;12.470;2023-06-19T00:47:59;103229.13;;;11.64;100.00
19236;BME280;9752;54.270;12.470;2023-06-19T00:53:02;103249.63;;;11.61;100.00
19236;BME280;9752;54.270;12.470;2023-06-19T00:58:06;103254.88;;;11.52;100.00
19236;BME280;9752;54.270;12.470;2023-06-19T01:03:08;103262.09;;;11.46;100.00
19236;BME280;9752;54.270;12.470;2023-06-19T01:08:14;103271.28;;;11.42;100.00
19236;BME280;9752;54.270;12.470;2023-06-19T01:13:28;103277.69;;;11.46;100.00
19236;BME280;9752;54.270;12.470;2023-06-19T01:18:32;103294.44;;;11.49;100.00
19236;BME280;9752;54.270;12.470;2023-06-19T01:23:35;103301.50;;;11.42;100.00
19236;BME280;9752;54.270;12.470;2023-06-19T01:28:38;103291.16;;;11.24;100.00
19236;BME280;9752;54.270;12.470;2023-06-19T01:33:42;103292.38;;;11.19;100.00
19236;BME280;9752;54.270;12.470;2023-06-19T01:38:47;103294.25;;;11.20;100.00
19236;BME280;9752;54.270;12.470;2023-06-19T01:43:50;103299.59;;;11.13;100.00
19236;BME280;9752;54.270;12.470;2023-06-19T01:48:52;103300.84;;;11.08;100.00
19236;BME280;9752;54.270;12.470;2023-06-19T01:53:55;103326.03;;;11.09;100.00
19236;BME280;9752;54.270;12.470;2023-06-19T01:58:57;103324.50;;;11.11;100.00
19236;BME280;9752;54.270;12.470;2023-06-19T02:03:59;103334.28;;;11.05;100.00
19236;BME280;9752;54.270;12.470;2023-06-19T02:09:02;103326.50;;;11.05;100.00
19236;BME280;9752;54.270;12.470;2023-06-19T02:14:04;103332.00;;;10.99;100.00
19236;BME280;9752;54.270;12.470;2023-06-19T02:19:05;103345.28;;;10.93;100.00
19236;BME280;9752;54.270;12.470;2023-06-19T02:24:08;103352.03;;;10.91;100.00
19236;BME280;9752;54.270;12.470;2023-06-19T02:29:10;103357.50;;;10.86;100.00
19236;BME280;9752;54.270;12.470;2023-06-19T02:34:12;103363.16;;;10.90;100.00
19236;BME280;9752;54.270;12.470;2023-06-19T02:39:15;103354.13;;;10.87;100.00
19236;BME280;9752;54.270;12.470;2023-06-19T02:44:18;103362.69;;;10.94;100.00
19236;BME280;9752;54.270;12.470;2023-06-19T02:49:20;103369.28;;;11.00;100.00
19236;BME280;9752;54.270;12.470;2023-06-19T02:54:23;103366.06;;;10.93;100.00
19236;BME280;9752;54.270;12.470;2023-06-19T02:59:25;103360.88;;;10.93;100.00
19236;BME280;9752;54.270;12.470;2023-06-19T03:04:26;103356.16;;;10.89;100.00
19236;BME280;9752;54.270;12.470;2023-06-19T03:09:31;103384.09;;;11.09;100.00
19236;BME280;9752;54.270;12.470;2023-06-19T03:14:33;103403.94;;;11.26;100.00
19236;BME280;9752;54.270;12.470;2023-06-19T03:19:34;103416.63;;;11.41;100.00
19236;BME280;9752;54.270;12.470;2023-06-19T03:24:38;103426.09;;;11.58;100.00
19236;BME280;9752;54.270;12.470;2023-06-19T03:29:49;103435.56;;;11.66;100.00
19236;BME280;9752;54.270;12.470;2023-06-19T03:34:58;103450.69;;;11.79;100.00
19236;BME280;9752;54.270;12.470;2023-06-19T03:40:03;103459.13;;;11.94;100.00
19236;BME280;9752;54.270;12.470;2023-06-19T03:45:10;103469.78;;;12.05;100.00
19236;BME280;9752;54.270;12.470;2023-06-19T03:50:11;103483.78;;;12.25;100.00
19236;BME280;9752;54.270;12.470;2023-06-19T03:55:15;103505.97;;;12.39;100.00
19236;BME280;9752;54.270;12.470;2023-06-19T04:00:17;103518.13;;;12.57;100.00
19236;BME280;9752;54.270;12.470;2023-06-19T04:05:19;103517.78;;;12.72;100.00
19236;BME280;9752;54.270;12.470;2023-06-19T04:10:22;103531.13;;;12.94;100.00
19236;BME280;9752;54.270;12.470;2023-06-19T04:15:24;103538.97;;;13.13;100.00
19236;BME280;9752;54.270;12.470;2023-06-19T04:20:26;103527.88;;;13.24;100.00
19236;BME280;9752;54.270;12.470;2023-06-19T04:25:29;103526.41;;;13.45;100.00
19236;BME280;9752;54.270;12.470;2023-06-19T04:30:30;103523.34;;;13.59;100.00
19236;BME280;9752;54.270;12.470;2023-06-19T04:35:32;103527.69;;;13.88;100.00
19236;BME280;9752;54.270;12.470;2023-06-19T04:40:36;103531.94;;;14.25;100.00
19236;BME280;9752;54.270;12.470;2023-06-19T04:45:38;103538.94;;;14.56;100.00
19236;BME280;9752;54.270;12.470;2023-06-19T04:50:40;103540.09;;;14.89;100.00
19236;BME280;9752;54.270;12.470;2023-06-19T04:55:43;103547.16;;;15.31;100.00
19236;BME280;9752;54.270;12.470;2023-06-19T05:00:45;103547.13;;;15.72;100.00
19236;BME280;9752;54.270;12.470;2023-06-19T05:05:51;103530.03;;;16.08;100.00
19236;BME280;9752;54.270;12.470;2023-06-19T05:10:54;103497.44;;;16.36;100.00
19236;BME280;9752;54.270;12.470;2023-06-19T05:15:56;103459.59;;;16.55;100.00
19236;BME280;9752;54.270;12.470;2023-06-19T05:20:58;103428.63;;;16.95;100.00
19236;BME280;9752;54.270;12.470;2023-06-19T05:26:01;103386.91;;;17.45;100.00
19236;BME280;9752;54.270;12.470;2023-06-19T05:31:03;103329.09;;;17.92;100.00
19236;BME280;9752;54.270;12.470;2023-06-19T05:36:05;103229.00;;;18.26;100.00
19236;BME280;9752;54.270;12.470;2023-06-19T05:41:08;103158.03;;;18.93;100.00
19236;BME280;9752;54.270;12.470;2023-06-19T05:46:10;103043.28;;;19.23;100.00
19236;BME280;9752;54.270;12.470;2023-06-19T05:51:12;102931.34;;;19.73;100.00
19236;BME280;9752;54.270;12.470;2023-06-19T05:56:15;102796.88;;;20.03;100.00
19236;BME280;9752;54.270;12.470;2023-06-19T06:01:16;102626.28;;;20.51;100.00
19236;BME280;9752;54.270;12.470;2023-06-19T06:06:19;102468.72;;;21.23;100.00
19236;BME280;9752;54.270;12.470;2023-06-19T06:11:22;102209.06;;;22.13;100.00
19236;BME280;9752;54.270;12.470;2023-06-19T06:16:24;101848.34;;;22.58;100.00
19236;BME280;9752;54.270;12.470;2023-06-19T06:21:25;101541.03;;;22.33;100.00
19236;BME280;9752;54.270;12.470;2023-06-19T06:26:29;101505.31;;;22.14;100.00
19236;BME280;9752;54.270;12.470;2023-06-19T06:31:30;101481.78;;;21.89;100.00
19236;BME280;9752;54.270;12.470;2023-06-19T06:36:32;101479.56;;;22.06;100.00
19236;BME280;9752;54.270;12.470;2023-06-19T06:41:35;101476.34;;;22.19;100.00
19236;BME280;9752;54.270;12.470;2023-06-19T06:46:39;101465.59;;;22.11;100.00
19236;BME280;9752;54.270;12.470;2023-06-19T06:51:40;101456.59;;;22.03;100.00
19236;BME280;9752;54.270;12.470;2023-06-19T06:56:43;101460.41;;;22.14;100.00
19236;BME280;9752;54.270;12.470;2023-06-19T07:01:48;101466.72;;;22.60;100.00
19236;BME280;9752;54.270;12.470;2023-06-19T07:06:50;101464.13;;;23.03;100.00
19236;BME280;9752;54.270;12.470;2023-06-19T07:11:53;101456.56;;;23.23;100.00
19236;BME280;9752;54.270;12.470;2023-06-19T07:16:55;101457.81;;;23.44;100.00
19236;BME280;9752;54.270;12.470;2023-06-19T07:21:56;101462.59;;;23.16;100.00
19236;BME280;9752;54.270;12.470;2023-06-19T07:26:59;101467.75;;;23.08;100.00
19236;BME280;9752;54.270;12.470;2023-06-19T07:32:01;101471.63;;;23.27;100.00
19236;BME280;9752;54.270;12.470;2023-06-19T07:37:04;101467.91;;;22.73;100.00
19236;BME280;9752;54.270;12.470;2023-06-19T07:42:08;101468.69;;;23.12;100.00
19236;BME280;9752;54.270;12.470;2023-06-19T07:47:11;101465.19;;;23.60;100.00
19236;BME280;9752;54.270;12.470;2023-06-19T07:52:13;101461.13;;;23.81;100.00
19236;BME280;9752;54.270;12.470;2023-06-19T07:57:17;101451.22;;;23.22;100.00
19236;BME280;9752;54.270;12.470;2023-06-19T08:02:18;101447.69;;;23.21;100.00
19236;BME280;9752;54.270;12.470;2023-06-19T08:07:20;101462.94;;;23.34;100.00
19236;BME280;9752;54.270;12.470;2023-06-19T08:12:23;101460.81;;;23.15;100.00
19236;BME280;9752;54.270;12.470;2023-06-19T08:17:25;101458.56;;;23.36;100.00
19236;BME280;9752;54.270;12.470;2023-06-19T08:22:26;101453.88;;;23.22;100.00
19236;BME280;9752;54.270;12.470;2023-06-19T08:27:29;101456.19;;;23.05;100.00
19236;BME280;9752;54.270;12.470;2023-06-19T08:32:31;101452.44;;;22.95;100.00
19236;BME280;9752;54.270;12.470;2023-06-19T08:37:34;101454.03;;;22.85;100.00
19236;BME280;9752;54.270;12.470;2023-06-19T08:42:37;101456.81;;;22.93;100.00
19236;BME280;9752;54.270;12.470;2023-06-19T08:47:40;101450.03;;;22.61;100.00
19236;BME280;9752;54.270;12.470;2023-06-19T08:52:41;101450.34;;;22.36;100.00
19236;BME280;9752;54.270;12.470;2023-06-19T08:57:48;101451.66;;;22.56;100.00
19236;BME280;9752;54.270;12.470;2023-06-19T09:02:49;101444.81;;;22.66;100.00
19236;BME280;9752;54.270;12.470;2023-06-19T09:07:56;101451.81;;;22.64;100.00
19236;BME280;9752;54.270;12.470;2023-06-19T09:13:01;101443.00;;;22.64;100.00
19236;BME280;9752;54.270;12.470;2023-06-19T09:18:04;101455.91;;;22.48;100.00
19236;BME280;9752;54.270;12.470;2023-06-19T09:23:06;101445.16;;;22.40;100.00
19236;BME280;9752;54.270;12.470;2023-06-19T09:28:16;101440.75;;;22.41;100.00
19236;BME280;9752;54.270;12.470;2023-06-19T09:33:18;101435.53;;;22.42;100.00
19236;BME280;9752;54.270;12.470;2023-06-19T09:38:24;101425.69;;;22.37;100.00
19236;BME280;9752;54.270;12.470;2023-06-19T09:43:34;101432.44;;;22.64;100.00
19236;BME280;9752;54.270;12.470;2023-06-19T09:48:41;101429.09;;;22.74;100.00
19236;BME280;9752;54.270;12.470;2023-06-19T09:53:44;101440.88;;;22.88;100.00
19236;BME280;9752;54.270;12.470;2023-06-19T09:58:49;101434.66;;;23.30;100.00
19236;BME280;9752;54.270;12.470;2023-06-19T10:04:03;101435.16;;;23.61;100.00
19236;BME280;9752;54.270;12.470;2023-06-19T10:09:07;101434.25;;;23.59;100.00
19236;BME280;9752;54.270;12.470;2023-06-19T10:14:10;101436.59;;;23.94;100.00
19236;BME280;9752;54.270;12.470;2023-06-19T10:19:17;101436.16;;;24.21;100.00
19236;BME280;9752;54.270;12.470;2023-06-19T10:24:20;101436.72;;;24.61;100.00
19236;BME280;9752;54.270;12.470;2023-06-19T10:29:23;101431.09;;;24.41;100.00
19236;BME280;9752;54.270;12.470;2023-06-19T10:34:33;101425.31;;;24.07;100.00
19236;BME280;9752;54.270;12.470;2023-06-19T10:39:35;101423.78;;;23.67;100.00
19236;BME280;9752;54.270;12.470;2023-06-19T10:44:38;101438.91;;;23.24;100.00
19236;BME280;9752;54.270;12.470;2023-06-19T10:49:42;101453.56;;;23.05;100.00
19236;BME280;9752;54.270;12.470;2023-06-19T10:54:44;101454.75;;;22.78;100.00
19236;BME280;9752;54.270;12.470;2023-06-19T10:59:50;101457.28;;;22.72;100.00
19236;BME280;9752;54.270;12.470;2023-06-19T11:04:53;101465.25;;;22.73;100.00
19236;BME280;9752;54.270;12.470;2023-06-19T11:09:55;101462.19;;;22.96;100.00
19236;BME280;9752;54.270;12.470;2023-06-19T11:14:58;101452.66;;;23.51;100.00
19236;BME280;9752;54.270;12.470;2023-06-19T11:19:59;101446.78;;;23.68;100.00
19236;BME280;9752;54.270;12.470;2023-06-19T11:25:02;101441.72;;;23.82;100.00
19236;BME280;9752;54.270;12.470;2023-06-19T11:30:07;101436.91;;;23.59;100.00
19236;BME280;9752;54.270;12.470;2023-06-19T11:35:11;101441.69;;;23.80;100.00
19236;BME280;9752;54.270;12.470;2023-06-19T11:40:13;101445.53;;;23.47;100.00
19236;BME280;9752;54.270;12.470;2023-06-19T11:45:18;101450.94;;;23.06;100.00
19236;BME280;9752;54.270;12.470;2023-06-19T11:50:26;101434.31;;;23.13;100.00
19236;BME280;9752;54.270;12.470;2023-06-19T11:55:28;101432.81;;;23.26;100.00
19236;BME280;9752;54.270;12.470;2023-06-19T12:00:31;101424.94;;;23.31;100.00
19236;BME280;9752;54.270;12.470;2023-06-19T12:05:34;101422.25;;;23.28;100.00
19236;BME280;9752;54.270;12.470;2023-06-19T12:10:36;101416.78;;;23.20;100.00
19236;BME280;9752;54.270;12.470;2023-06-19T12:15:39;101427.50;;;22.80;100.00
19236;BME280;9752;54.270;12.470;2023-06-19T12:20:40;101430.38;;;22.93;100.00
19236;BME280;9752;54.270;12.470;2023-06-19T12:25:42;101426.47;;;23.16;100.00
19236;BME280;9752;54.270;12.470;2023-06-19T12:30:45;101417.31;;;23.02;100.00
19236;BME280;9752;54.270;12.470;2023-06-19T12:35:48;101414.31;;;23.29;100.00
19236;BME280;9752;54.270;12.470;2023-06-19T12:40:50;101410.63;;;23.71;100.00
19236;BME280;9752;54.270;12.470;2023-06-19T12:45:53;101407.16;;;24.35;100.00
19236;BME280;9752;54.270;12.470;2023-06-19T12:50:55;101390.91;;;24.76;100.00
19236;BME280;9752;54.270;12.470;2023-06-19T12:55:57;101390.66;;;24.56;100.00
19236;BME280;9752;54.270;12.470;2023-06-19T13:01:00;101394.09;;;24.50;100.00
19236;BME280;9752;54.270;12.470;2023-06-19T13:06:02;101395.28;;;24.07;100.00
19236;BME280;9752;54.270;12.470;2023-06-19T13:11:03;101395.66;;;24.33;100.00
19236;BME280;9752;54.270;12.470;2023-06-19T13:16:06;101394.50;;;24.14;100.00
19236;BME280;9752;54.270;12.470;2023-06-19T13:21:10;101395.75;;;24.41;100.00
19236;BME280;9752;54.270;12.470;2023-06-19T13:26:12;101388.19;;;24.71;100.00
19236;BME280;9752;54.270;12.470;2023-06-19T13:31:15;101385.00;;;25.03;100.00
19236;BME280;9752;54.270;12.470;2023-06-19T13:36:17;101369.53;;;25.51;100.00
19236;BME280;9752;54.270;12.470;2023-06-19T13:41:19;101364.31;;;25.62;100.00
19236;BME280;9752;54.270;12.470;2023-06-19T13:46:25;101361.78;;;25.83;100.00
19236;BME280;9752;54.270;12.470;2023-06-19T13:51:27;101369.03;;;26.06;100.00
19236;BME280;9752;54.270;12.470;2023-06-19T13:56:28;101369.88;;;26.00;100.00
19236;BME280;9752;54.270;12.470;2023-06-19T14:01:32;101372.28;;;25.65;100.00
19236;BME280;9752;54.270;12.470;2023-06-19T14:06:34;101372.03;;;25.32;100.00
19236;BME280;9752;54.270;12.470;2023-06-19T14:11:35;101372.94;;;25.36;100.00
19236;BME280;9752;54.270;12.470;2023-06-19T14:16:38;101365.28;;;25.78;100.00
19236;BME280;9752;54.270;12.470;2023-06-19T14:21:40;101369.22;;;26.41;100.00
19236;BME280;9752;54.270;12.470;2023-06-19T14:26:41;101379.47;;;25.78;100.00
19236;BME280;9752;54.270;12.470;2023-06-19T14:31:44;101374.50;;;25.14;100.00
19236;BME280;9752;54.270;12.470;2023-06-19T14:36:46;101393.66;;;24.87;100.00
19236;BME280;9752;54.270;12.470;2023-06-19T14:41:48;101394.41;;;24.72;100.00
19236;BME280;9752;54.270;12.470;2023-06-19T14:46:51;101387.72;;;25.11;100.00
19236;BME280;9752;54.270;12.470;2023-06-19T14:51:52;101387.97;;;25.31;100.00
19236;BME280;9752;54.270;12.470;2023-06-19T14:56:54;101374.50;;;25.17;100.00
19236;BME280;9752;54.270;12.470;2023-06-19T15:01:57;101372.03;;;25.34;100.00
19236;BME280;9752;54.270;12.470;2023-06-19T15:06:59;101378.34;;;25.45;100.00
19236;BME280;9752;54.270;12.470;2023-06-19T15:12:01;101385.38;;;25.42;100.00
19236;BME280;9752;54.270;12.470;2023-06-19T15:17:04;101378.44;;;25.61;100.00
19236;BME280;9752;54.270;12.470;2023-06-19T15:22:06;101382.84;;;25.57;100.00
19236;BME280;9752;54.270;12.470;2023-06-19T15:27:08;101375.06;;;25.82;100.00
19236;BME280;9752;54.270;12.470;2023-06-19T15:32:11;101374.31;;;25.98;100.00
19236;BME280;9752;54.270;12.470;2023-06-19T15:37:12;101366.78;;;25.39;100.00
19236;BME280;9752;54.270;12.470;2023-06-19T15:42:14;101362.34;;;25.35;100.00
19236;BME280;9752;54.270;12.470;2023-06-19T15:47:17;101364.81;;;25.21;100.00
19236;BME280;9752;54.270;12.470;2023-06-19T15:52:19;101353.09;;;25.00;100.00
19236;BME280;9752;54.270;12.470;2023-06-19T15:57:21;101348.56;;;24.87;100.00
19236;BME280;9752;54.270;12.470;2023-06-19T16:02:24;101344.13;;;24.84;100.00
19236;BME280;9752;54.270;12.470;2023-06-19T16:07:26;101342.03;;;24.54;100.00
19236;BME280;9752;54.270;12.470;2023-06-19T16:12:28;101338.41;;;24.50;100.00
19236;BME280;9752;54.270;12.470;2023-06-19T16:17:31;101355.69;;;24.89;100.00
19236;BME280;9752;54.270;12.470;2023-06-19T16:22:33;101340.16;;;25.29;100.00
19236;BME280;9752;54.270;12.470;2023-06-19T16:27:34;101341.44;;;25.87;100.00
19236;BME280;9752;54.270;12.470;2023-06-19T16:32:37;101335.88;;;25.48;100.00
19236;BME280;9752;54.270;12.470;2023-06-19T16:37:39;101333.13;;;25.35;100.00
19236;BME280;9752;54.270;12.470;2023-06-19T16:42:42;101330.19;;;26.42;100.00
19236;BME280;9752;54.270;12.470;2023-06-19T16:47:45;101321.16;;;28.57;100.00
19236;BME280;9752;54.270;12.470;2023-06-19T16:52:47;101317.41;;;29.89;100.00
19236;BME280;9752;54.270;12.470;2023-06-19T16:57:49;101317.41;;;29.91;100.00
19236;BME280;9752;54.270;12.470;2023-06-19T17:02:52;101319.66;;;30.26;100.00
19236;BME280;9752;54.270;12.470;2023-06-19T17:07:55;101310.59;;;30.36;100.00
19236;BME280;9752;54.270;12.470;2023-06-19T17:12:57;101323.28;;;30.21;100.00
19236;BME280;9752;54.270;12.470;2023-06-19T17:18:00;101323.06;;;29.58;100.00
19236;BME280;9752;54.270;12.470;2023-06-19T17:23:02;101328.72;;;29.25;100.00
19236;BME280;9752;54.270;12.470;2023-06-19T17:28:04;101322.88;;;28.70;100.00
19236;BME280;9752;54.270;12.470;2023-06-19T17:33:08;101325.06;;;27.42;100.00
19236;BME280;9752;54.270;12.470;2023-06-19T17:38:10;101320.38;;;26.24;100.00
19236;BME280;9752;54.270;12.470;2023-06-19T17:43:12;101319.59;;;25.11;100.00
19236;BME280;9752;54.270;12.470;2023-06-19T17:48:15;101321.50;;;24.41;100.00
19236;BME280;9752;54.270;12.470;2023-06-19T17:53:16;101316.66;;;24.06;100.00
19236;BME280;9752;54.270;12.470;2023-06-19T17:58:18;101328.66;;;23.81;100.00
19236;BME280;9752;54.270;12.470;2023-06-19T18:03:21;101322.75;;;23.99;100.00
19236;BME280;9752;54.270;12.470;2023-06-19T18:08:23;101318.88;;;23.76;100.00
19236;BME280;9752;54.270;12.470;2023-06-19T18:13:24;101312.28;;;23.50;100.00
19236;BME280;9752;54.270;12.470;2023-06-19T18:18:27;101322.16;;;23.07;100.00
19236;BME280;9752;54.270;12.470;2023-06-19T18:23:29;101329.66;;;22.84;100.00
19236;BME280;9752;54.270;12.470;2023-06-19T18:28:31;101339.59;;;22.48;100.00
19236;BME280;9752;54.270;12.470;2023-06-19T18:33:34;101333.66;;;22.19;100.00
19236;BME280;9752;54.270;12.470;2023-06-19T18:38:35;101329.31;;;21.81;100.00
19236;BME280;9752;54.270;12.470;2023-06-19T18:43:37;101332.59;;;21.71;100.00
19236;BME280;9752;54.270;12.470;2023-06-19T18:48:40;101332.91;;;21.47;100.00
19236;BME280;9752;54.270;12.470;2023-06-19T18:53:43;101340.53;;;21.36;100.00
19236;BME280;9752;54.270;12.470;2023-06-19T18:58:44;101345.50;;;21.24;100.00
19236;BME280;9752;54.270;12.470;2023-06-19T19:03:47;101347.13;;;21.17;100.00
19236;BME280;9752;54.270;12.470;2023-06-19T19:08:49;101360.00;;;21.06;100.00
19236;BME280;9752;54.270;12.470;2023-06-19T19:13:56;101375.72;;;21.02;100.00
19236;BME280;9752;54.270;12.470;2023-06-19T19:18:59;101381.72;;;20.96;100.00
19236;BME280;9752;54.270;12.470;2023-06-19T19:24:01;101397.09;;;20.81;100.00
19236;BME280;9752;54.270;12.470;2023-06-19T19:29:02;101398.06;;;20.54;100.00
19236;BME280;9752;54.270;12.470;2023-06-19T19:34:05;101408.69;;;20.27;100.00
19236;BME280;9752;54.270;12.470;2023-06-19T19:39:07;101407.81;;;19.98;100.00
19236;BME280;9752;54.270;12.470;2023-06-19T19:44:09;101419.97;;;19.68;100.00
19236;BME280;9752;54.270;12.470;2023-06-19T19:49:12;101438.91;;;19.57;100.00
19236;BME280;9752;54.270;12.470;2023-06-19T19:54:13;101440.84;;;19.37;100.00
19236;BME280;9752;54.270;12.470;2023-06-19T19:59:15;101458.97;;;19.29;100.00
19236;BME280;9752;54.270;12.470;2023-06-19T20:04:18;101468.88;;;19.10;100.00
19236;BME280;9752;54.270;12.470;2023-06-19T20:09:20;101474.53;;;18.97;100.00
19236;BME280;9752;54.270;12.470;2023-06-19T20:14:21;101489.00;;;18.86;100.00
19236;BME280;9752;54.270;12.470;2023-06-19T20:19:25;101514.84;;;18.75;100.00
19236;BME280;9752;54.270;12.470;2023-06-19T20:24:27;101520.38;;;18.60;100.00
19236;BME280;9752;54.270;12.470;2023-06-19T20:29:30;101532.91;;;18.45;100.00
19236;BME280;9752;54.270;12.470;2023-06-19T20:34:33;101534.22;;;18.33;100.00
19236;BME280;9752;54.270;12.470;2023-06-19T20:39:35;101553.09;;;18.25;100.00
19236;BME280;9752;54.270;12.470;2023-06-19T20:44:36;101569.72;;;18.03;100.00
19236;BME280;9752;54.270;12.470;2023-06-19T20:49:39;101580.38;;;17.86;100.00
19236;BME280;9752;54.270;12.470;2023-06-19T20:54:41;101593.69;;;17.71;100.00
19236;BME280;9752;54.270;12.470;2023-06-19T20:59:43;101602.78;;;17.59;100.00
19236;BME280;9752;54.270;12.470;2023-06-19T21:04:45;101616.84;;;17.41;100.00
19236;BME280;9752;54.270;12.470;2023-06-19T21:09:48;101636.44;;;17.30;100.00
19236;BME280;9752;54.270;12.470;2023-06-19T21:14:50;101648.81;;;17.14;100.00
19236;BME280;9752;54.270;12.470;2023-06-19T21:19:53;101661.66;;;17.08;100.00
19236;BME280;9752;54.270;12.470;2023-06-19T21:24:54;101678.88;;;17.03;100.00
19236;BME280;9752;54.270;12.470;2023-06-19T21:29:56;101697.00;;;16.98;100.00
19236;BME280;9752;54.270;12.470;2023-06-19T21:34:59;101920.47;;;16.94;100.00
19236;BME280;9752;54.270;12.470;2023-06-19T21:40:01;101987.53;;;16.91;100.00
19236;BME280;9752;54.270;12.470;2023-06-19T21:45:05;102158.53;;;16.87;100.00
19236;BME280;9752;54.270;12.470;2023-06-19T21:50:09;102227.00;;;16.93;100.00
19236;BME280;9752;54.270;12.470;2023-06-19T21:55:11;102299.13;;;16.86;100.00
19236;BME280;9752;54.270;12.470;2023-06-19T22:00:13;102365.16;;;16.81;100.00
19236;BME280;9752;54.270;12.470;2023-06-19T22:05:18;102408.53;;;16.75;100.00
19236;BME280;9752;54.270;12.470;2023-06-19T22:10:19;102446.91;;;16.60;100.00
19236;BME280;9752;54.270;12.470;2023-06-19T22:15:21;102505.09;;;16.41;100.00
19236;BME280;9752;54.270;12.470;2023-06-19T22:20:24;102525.22;;;16.29;100.00
19236;BME280;9752;54.270;12.470;2023-06-19T22:25:26;102564.91;;;16.22;100.00
19236;BME280;9752;54.270;12.470;2023-06-19T22:30:28;102606.28;;;16.14;100.00
19236;BME280;9752;54.270;12.470;2023-06-19T22:35:31;102651.41;;;16.10;100.00
19236;BME280;9752;54.270;12.470;2023-06-19T22:40:32;102687.31;;;15.99;100.00
19236;BME280;9752;54.270;12.470;2023-06-19T22:45:34;102742.00;;;16.08;100.00
19236;BME280;9752;54.270;12.470;2023-06-19T22:50:37;102783.72;;;15.93;100.00
19236;BME280;9752;54.270;12.470;2023-06-19T22:55:39;102812.44;;;15.79;100.00
19236;BME280;9752;54.270;12.470;2023-06-19T23:00:40;102839.63;;;15.70;100.00
19236;BME280;9752;54.270;12.470;2023-06-19T23:05:43;102878.34;;;15.74;100.00
19236;BME280;9752;54.270;12.470;2023-06-19T23:10:45;102913.94;;;15.60;100.00
19236;BME280;9752;54.270;12.470;2023-06-19T23:15:47;102954.63;;;15.56;100.00
19236;BME280;9752;54.270;12.470;2023-06-19T23:20:50;102984.19;;;15.43;100.00
19236;BME280;9752;54.270;12.470;2023-06-19T23:25:51;103012.50;;;15.37;100.00
19236;BME280;9752;54.270;12.470;2023-06-19T23:30:53;103042.59;;;15.32;100.00
19236;BME280;9752;54.270;12.470;2023-06-19T23:35:56;103059.41;;;15.24;100.00
19236;BME280;9752;54.270;12.470;2023-06-19T23:40:58;103102.16;;;15.25;100.00
19236;BME280;9752;54.270;12.470;2023-06-19T23:45:59;103138.88;;;15.48;100.00
19236;BME280;9752;54.270;12.470;2023-06-19T23:51:02;103188.00;;;15.74;100.00
19236;BME280;9752;54.270;12.470;2023-06-19T23:56:04;103242.75;;;16.17;100.00
